Time;durP1;ratioP1;P1;durP2;ratioP2;P2;SDS_P1;SDS_P2;PMS_P1;PMS_P2;Temp;Humidity;BMP_temperature;BMP_pressure;BME280_temperature;BME280_humidity;BME280_pressure;Samples;Min_cycle;Max_cycle;Signal;HPM_P1;HPM_P2
2022/10/08 00:00:00;;;;;;;11.50;8.60;;;15.60;1.00;;;;;;5080800;28;20471;-72
2022/10/08 00:02:28;;;;;;;18.33;8.80;;;15.60;1.00;;;;;;5081132;28;20192;-71
2022/10/08 00:04:54;;;;;;;15.33;9.47;;;15.60;1.00;;;;;;5088108;28;20220;-72
2022/10/08 00:07:20;;;;;;;15.87;9.30;;;15.60;1.00;;;;;;5080992;28;21011;-72
2022/10/08 00:09:46;;;;;;;17.83;8.43;;;15.60;1.00;;;;;;5087103;28;20433;-72
2022/10/08 00:12:11;;;;;;;10.53;7.83;;;15.70;1.00;;;;;;5081914;28;20523;-71
2022/10/08 00:14:39;;;;;;;17.90;9.00;;;15.80;1.00;;;;;;5085746;28;20202;-71
2022/10/08 00:17:05;;;;;;;17.00;8.50;;;15.80;1.00;;;;;;5085383;28;20202;-72
2022/10/08 00:19:30;;;;;;;23.93;10.17;;;15.80;1.00;;;;;;5089237;28;20948;-70
2022/10/08 00:21:56;;;;;;;15.93;9.43;;;15.80;1.00;;;;;;5081288;28;20677;-72
2022/10/08 00:24:22;;;;;;;19.13;9.53;;;15.80;1.00;;;;;;5085251;28;20219;-72
2022/10/08 00:26:48;;;;;;;17.40;9.97;;;15.80;1.00;;;;;;5087745;28;20714;-72
2022/10/08 00:29:17;;;;;;;20.03;9.73;;;15.80;1.00;;;;;;5084875;28;20955;-71
2022/10/08 00:31:44;;;;;;;16.97;9.70;;;15.80;1.00;;;;;;5082312;28;20913;-72
2022/10/08 00:34:16;;;;;;;19.07;10.50;;;15.80;1.00;;;;;;5089133;28;21102;-72
2022/10/08 00:36:42;;;;;;;17.43;10.00;;;16.10;1.00;;;;;;5082398;28;20839;-71
2022/10/08 00:39:12;;;;;;;18.57;9.57;;;15.90;1.00;;;;;;5083946;28;20441;-70
2022/10/08 00:41:39;;;;;;;16.00;9.60;;;15.80;1.00;;;;;;5068065;28;20670;-71
2022/10/08 00:44:42;;;;;;;15.60;9.63;;;15.90;1.00;;;;;;5088836;28;20549;-71
2022/10/08 00:47:18;;;;;;;17.50;9.90;;;15.80;1.00;;;;;;5088602;28;20429;-71
2022/10/08 00:49:48;;;;;;;20.20;9.57;;;15.80;1.00;;;;;;5086219;28;20425;-70
2022/10/08 00:52:15;;;;;;;14.60;10.03;;;15.90;1.00;;;;;;5091841;28;20429;-71
2022/10/08 00:54:41;;;;;;;19.43;10.13;;;15.90;1.00;;;;;;5085470;28;20815;-75
2022/10/08 00:57:08;;;;;;;14.60;9.70;;;15.90;1.00;;;;;;5087810;28;20438;-72
2022/10/08 00:59:35;;;;;;;14.53;10.03;;;15.90;1.00;;;;;;5085347;28;20206;-71
2022/10/08 01:02:00;;;;;;;15.83;9.23;;;15.80;1.00;;;;;;5097602;28;20486;-71
2022/10/08 01:04:26;;;;;;;16.90;10.07;;;15.80;1.00;;;;;;5093142;28;21051;-72
2022/10/08 01:07:10;;;;;;;12.80;9.80;;;15.80;1.00;;;;;;5088849;28;20187;-73
2022/10/08 01:10:07;;;;;;;19.03;10.80;;;15.80;1.00;;;;;;5086450;28;20206;-72
2022/10/08 01:12:51;;;;;;;18.37;9.73;;;15.80;1.00;;;;;;5091316;28;20471;-71
2022/10/08 01:15:31;;;;;;;19.40;9.77;;;15.80;1.00;;;;;;5097595;28;20414;-73
2022/10/08 01:17:57;;;;;;;18.37;9.90;;;15.70;1.00;;;;;;5090738;28;20434;-72
2022/10/08 01:20:51;;;;;;;18.70;10.57;;;15.70;1.00;;;;;;5086259;28;20445;-70
2022/10/08 01:23:56;;;;;;;14.37;9.90;;;15.70;1.80;;;;;;5075482;28;20172;-71
2022/10/08 01:26:44;;;;;;;16.60;10.50;;;15.70;1.90;;;;;;5086772;28;20441;-71
2022/10/08 01:29:22;;;;;;;21.90;9.40;;;15.60;3.60;;;;;;5091825;28;20476;-71
2022/10/08 01:32:02;;;;;;;14.70;10.10;;;15.70;6.30;;;;;;5083044;28;20448;-73
2022/10/08 01:34:40;;;;;;;23.27;9.80;;;15.60;4.20;;;;;;5092411;28;21552;-70
2022/10/08 01:37:08;;;;;;;18.67;10.67;;;15.70;4.10;;;;;;5088372;28;20437;-71
2022/10/08 01:39:37;;;;;;;23.30;10.80;;;15.70;4.00;;;;;;5084085;28;20813;-71
2022/10/08 01:42:06;;;;;;;17.83;10.40;;;15.70;3.20;;;;;;5074058;28;20758;-71
2022/10/08 01:44:42;;;;;;;17.90;10.03;;;15.70;3.50;;;;;;5079394;28;21048;-71
2022/10/08 01:47:11;;;;;;;20.93;9.17;;;15.80;2.00;;;;;;5094863;28;20480;-72
2022/10/08 01:49:42;;;;;;;17.13;9.73;;;15.80;3.10;;;;;;5091774;28;20469;-72
2022/10/08 01:52:18;;;;;;;16.50;9.40;;;15.80;2.30;;;;;;5089667;28;20923;-71
2022/10/08 01:54:47;;;;;;;13.30;9.03;;;15.80;2.80;;;;;;5086645;28;20491;-71
2022/10/08 01:57:13;;;;;;;21.90;10.07;;;15.80;4.20;;;;;;5081981;28;20562;-72
2022/10/08 01:59:51;;;;;;;22.00;10.13;;;15.80;1.30;;;;;;5091604;28;20539;-72
2022/10/08 02:02:20;;;;;;;16.00;9.40;;;15.90;1.20;;;;;;5089763;28;20219;-71
2022/10/08 02:04:48;;;;;;;21.47;9.57;;;15.80;1.10;;;;;;5087005;28;20564;-71
2022/10/08 02:07:21;;;;;;;15.47;9.60;;;16.20;2.00;;;;;;5090640;28;20836;-71
2022/10/08 02:09:51;;;;;;;19.27;9.30;;;15.90;1.30;;;;;;5087307;28;20446;-71
2022/10/08 02:12:17;;;;;;;16.23;9.50;;;15.90;1.00;;;;;;5090655;28;20900;-72
2022/10/08 02:14:48;;;;;;;13.63;9.40;;;16.00;1.00;;;;;;5083963;28;20434;-71
2022/10/08 02:17:45;;;;;;;19.40;9.70;;;16.10;1.00;;;;;;5096394;28;21069;-70
2022/10/08 02:20:40;;;;;;;17.70;9.40;;;16.10;1.00;;;;;;5083501;28;20445;-72
2022/10/08 02:23:24;;;;;;;18.80;9.40;;;16.10;1.00;;;;;;5069884;28;20928;-71
2022/10/08 02:25:59;;;;;;;13.63;9.37;;;16.10;1.00;;;;;;5089409;28;20426;-70
2022/10/08 02:28:56;;;;;;;14.30;8.50;;;16.10;1.00;;;;;;5086195;28;20430;-71
2022/10/08 02:31:27;;;;;;;16.87;10.30;;;16.10;1.00;;;;;;5077988;28;20470;-70
2022/10/08 02:34:07;;;;;;;14.53;9.30;;;16.00;1.00;;;;;;5090172;28;20540;-70
2022/10/08 02:36:40;;;;;;;15.93;9.53;;;16.00;1.00;;;;;;5083563;28;20516;-71
2022/10/08 02:39:07;;;;;;;15.07;9.90;;;16.00;1.00;;;;;;5082777;28;20430;-71
2022/10/08 02:41:39;;;;;;;15.70;9.50;;;17.80;1.00;;;;;;5083698;28;20590;-71
2022/10/08 02:44:10;;;;;;;16.03;9.67;;;16.00;1.00;;;;;;5083225;28;20449;-71
2022/10/08 02:46:43;;;;;;;11.73;9.07;;;16.00;1.00;;;;;;5085317;28;20448;-70
2022/10/08 02:49:14;;;;;;;16.27;9.20;;;16.00;1.00;;;;;;5090359;28;20963;-71
2022/10/08 02:51:44;;;;;;;15.93;8.90;;;16.10;1.00;;;;;;5086544;28;20437;-71
2022/10/08 02:54:11;;;;;;;14.90;9.17;;;16.10;1.00;;;;;;5085780;28;20436;-71
2022/10/08 02:56:45;;;;;;;14.37;9.43;;;16.10;1.00;;;;;;5089605;28;20406;-72
2022/10/08 02:59:12;;;;;;;12.83;8.70;;;16.10;1.00;;;;;;5085453;28;20455;-71
2022/10/08 03:01:44;;;;;;;13.73;9.10;;;16.00;1.00;;;;;;5089244;28;20449;-71
2022/10/08 03:04:22;;;;;;;14.07;9.00;;;16.00;1.00;;;;;;5085108;28;20457;-74
2022/10/08 03:06:51;;;;;;;20.10;9.37;;;16.10;1.00;;;;;;5087463;28;20421;-70
2022/10/08 03:09:19;;;;;;;13.13;9.23;;;16.00;1.00;;;;;;5087068;28;20457;-71
2022/10/08 03:11:45;;;;;;;15.30;9.67;;;16.70;1.00;;;;;;5089558;28;20539;-71
2022/10/08 03:14:17;;;;;;;19.70;9.07;;;16.10;1.00;;;;;;5087788;28;20425;-73
2022/10/08 03:16:44;;;;;;;14.77;10.00;;;16.10;1.00;;;;;;5088571;28;20414;-70
2022/10/08 03:19:12;;;;;;;14.50;9.93;;;16.00;1.00;;;;;;5083386;28;20512;-71
2022/10/08 03:21:40;;;;;;;11.23;8.83;;;16.00;1.00;;;;;;5088601;28;20424;-72
2022/10/08 03:24:11;;;;;;;17.30;9.47;;;16.00;1.00;;;;;;5083605;28;20585;-73
2022/10/08 03:26:37;;;;;;;14.17;8.87;;;16.00;1.00;;;;;;5086357;28;20904;-71
2022/10/08 03:29:03;;;;;;;15.90;9.27;;;16.00;1.00;;;;;;5082085;28;20919;-71
2022/10/08 03:31:28;;;;;;;14.70;9.80;;;16.00;1.00;;;;;;5088140;28;20433;-72
2022/10/08 03:33:54;;;;;;;14.13;8.83;;;16.00;1.00;;;;;;5087597;28;20196;-71
2022/10/08 03:36:21;;;;;;;14.97;9.30;;;15.90;1.00;;;;;;5088527;28;20183;-70
2022/10/08 03:38:47;;;;;;;18.47;9.70;;;16.00;1.00;;;;;;5087476;28;20483;-70
2022/10/08 03:41:13;;;;;;;15.80;9.97;;;16.00;1.00;;;;;;5089143;28;20418;-71
2022/10/08 03:43:39;;;;;;;13.37;8.90;;;16.00;1.00;;;;;;5080297;28;20484;-70
2022/10/08 03:46:05;;;;;;;12.57;8.63;;;15.90;1.30;;;;;;5087090;28;20433;-71
2022/10/08 03:48:31;;;;;;;22.73;8.83;;;15.90;1.00;;;;;;5079836;28;20434;-71
2022/10/08 03:51:08;;;;;;;14.50;9.00;;;15.90;1.00;;;;;;5088204;28;20584;-71
2022/10/08 03:53:38;;;;;;;16.00;9.47;;;15.90;1.30;;;;;;5083816;28;20270;-72
2022/10/08 03:56:09;;;;;;;12.90;8.50;;;15.90;2.60;;;;;;5081087;28;20617;-72
2022/10/08 03:58:35;;;;;;;20.70;10.27;;;15.80;1.00;;;;;;5085221;28;20837;-71
2022/10/08 04:01:03;;;;;;;15.83;9.73;;;15.80;1.80;;;;;;5083007;28;20436;-74
2022/10/08 04:03:30;;;;;;;16.00;9.13;;;15.80;2.80;;;;;;5089073;28;20723;-70
2022/10/08 04:05:56;;;;;;;13.70;8.37;;;15.70;3.70;;;;;;5084246;28;20430;-74
2022/10/08 04:08:22;;;;;;;16.40;9.57;;;15.70;5.10;;;;;;5088979;28;20471;-70
2022/10/08 04:10:47;;;;;;;11.60;8.87;;;15.70;5.10;;;;;;5085380;28;20917;-70
2022/10/08 04:13:14;;;;;;;16.60;9.27;;;15.60;6.10;;;;;;5089132;28;20172;-71
2022/10/08 04:15:41;;;;;;;19.03;8.27;;;15.60;5.90;;;;;;5086600;28;20188;-70
2022/10/08 04:18:06;;;;;;;16.83;8.47;;;15.60;5.50;;;;;;5088795;28;20414;-72
2022/10/08 04:20:33;;;;;;;12.90;8.50;;;15.60;5.70;;;;;;5082119;28;20475;-71
2022/10/08 04:22:58;;;;;;;19.13;8.97;;;15.50;6.70;;;;;;5088365;28;20297;-70
2022/10/08 04:25:24;;;;;;;19.30;9.27;;;15.40;7.20;;;;;;5084763;28;20572;-72
2022/10/08 04:27:49;;;;;;;16.00;8.50;;;15.40;9.00;;;;;;5086032;28;20192;-71
2022/10/08 04:30:15;;;;;;;20.23;8.67;;;15.40;7.80;;;;;;5093506;28;20215;-70
2022/10/08 04:32:41;;;;;;;14.47;8.23;;;15.30;7.70;;;;;;5085697;28;20691;-71
2022/10/08 04:35:07;;;;;;;14.13;8.20;;;15.30;10.10;;;;;;5093881;28;20414;-70
2022/10/08 04:37:32;;;;;;;19.97;8.87;;;15.20;9.00;;;;;;5089846;28;20187;-70
2022/10/08 04:39:58;;;;;;;16.13;8.70;;;15.10;11.90;;;;;;5092884;28;20204;-70
2022/10/08 04:42:24;;;;;;;11.83;8.40;;;15.00;14.40;;;;;;5090454;28;20194;-70
2022/10/08 04:44:49;;;;;;;20.70;9.30;;;15.00;13.90;;;;;;5093556;28;20340;-71
2022/10/08 04:47:15;;;;;;;19.30;9.83;;;15.40;14.90;;;;;;5085318;28;20855;-70
2022/10/08 04:49:40;;;;;;;15.90;8.90;;;14.80;14.90;;;;;;5093002;28;20563;-71
2022/10/08 04:52:06;;;;;;;15.17;9.80;;;14.80;17.10;;;;;;5085644;28;20562;-70
2022/10/08 04:54:32;;;;;;;16.27;9.63;;;14.80;18.40;;;;;;5088898;28;20635;-70
2022/10/08 04:56:57;;;;;;;16.93;8.50;;;14.70;19.60;;;;;;5091461;28;20270;-70
2022/10/08 04:59:23;;;;;;;11.90;8.20;;;14.70;18.30;;;;;;5081921;28;20262;-71
2022/10/08 05:01:48;;;;;;;13.23;8.70;;;14.60;17.80;;;;;;5087468;28;20450;-70
2022/10/08 05:04:14;;;;;;;17.07;9.27;;;14.60;17.20;;;;;;5088936;28;20204;-70
2022/10/08 05:06:40;;;;;;;13.73;9.00;;;14.50;18.90;;;;;;5092188;28;20250;-70
2022/10/08 05:09:05;;;;;;;14.50;9.00;;;14.40;19.40;;;;;;5089581;28;20233;-70
2022/10/08 05:11:32;;;;;;;14.97;9.40;;;14.30;20.90;;;;;;5082576;28;20177;-70
2022/10/08 05:13:58;;;;;;;18.10;8.77;;;14.20;22.70;;;;;;5091533;28;20639;-70
2022/10/08 05:16:24;;;;;;;15.40;9.10;;;14.40;24.20;;;;;;5091300;28;20847;-70
2022/10/08 05:18:50;;;;;;;15.93;8.63;;;14.10;24.40;;;;;;5083745;28;20691;-70
2022/10/08 05:21:26;;;;;;;20.20;8.97;;;14.10;23.80;;;;;;5091252;28;20425;-72
2022/10/08 05:24:18;;;;;;;14.70;8.23;;;14.00;23.70;;;;;;5088338;28;20457;-70
2022/10/08 05:26:43;;;;;;;12.93;8.80;;;14.00;23.90;;;;;;5087590;28;20441;-70
2022/10/08 05:29:09;;;;;;;16.57;8.40;;;13.90;25.00;;;;;;5087851;28;20479;-69
2022/10/08 05:31:36;;;;;;;10.87;8.07;;;13.80;25.50;;;;;;5091995;28;20247;-70
2022/10/08 05:34:02;;;;;;;12.50;8.03;;;13.70;30.20;;;;;;5089128;28;20928;-70
2022/10/08 05:36:30;;;;;;;14.67;8.40;;;13.80;26.50;;;;;;5091235;28;20421;-71
2022/10/08 05:38:58;;;;;;;12.27;8.20;;;13.80;25.50;;;;;;5086108;28;20283;-70
2022/10/08 05:41:25;;;;;;;12.20;8.30;;;13.80;23.80;;;;;;5090697;28;20457;-71
2022/10/08 05:43:53;;;;;;;14.93;8.53;;;13.70;24.90;;;;;;5087415;28;20461;-70
2022/10/08 05:46:19;;;;;;;15.83;8.73;;;13.70;25.30;;;;;;5089674;28;20426;-70
2022/10/08 05:48:45;;;;;;;17.27;9.27;;;13.70;24.10;;;;;;5087170;28;20967;-70
2022/10/08 05:51:13;;;;;;;11.10;7.53;;;13.70;26.40;;;;;;5079124;28;20434;-70
2022/10/08 05:53:41;;;;;;;15.17;7.90;;;13.80;23.80;;;;;;5084974;28;20195;-70
2022/10/08 05:56:08;;;;;;;10.43;7.17;;;13.90;21.40;;;;;;5091010;28;20418;-71
2022/10/08 05:58:36;;;;;;;11.97;7.80;;;13.90;17.30;;;;;;5083046;28;20458;-69
2022/10/08 06:01:04;;;;;;;15.90;8.80;;;14.00;16.30;;;;;;5070971;28;20629;-70
2022/10/08 06:03:30;;;;;;;13.30;8.30;;;13.90;16.30;;;;;;5087224;28;20430;-70
2022/10/08 06:06:04;;;;;;;17.90;8.83;;;14.30;19.40;;;;;;5087505;28;20839;-70
2022/10/08 06:08:30;;;;;;;15.50;8.47;;;13.70;20.80;;;;;;5083463;28;20179;-70
2022/10/08 06:10:57;;;;;;;13.70;8.17;;;13.80;22.90;;;;;;5088171;28;20456;-71
2022/10/08 06:13:22;;;;;;;10.70;8.10;;;13.70;23.20;;;;;;5090344;28;20186;-70
2022/10/08 06:15:59;;;;;;;13.67;8.80;;;14.20;22.70;;;;;;5088139;28;20438;-70
2022/10/08 06:18:27;;;;;;;17.67;8.63;;;13.80;21.00;;;;;;5090964;28;20650;-70
2022/10/08 06:20:53;;;;;;;15.57;8.53;;;13.80;21.80;;;;;;5084894;28;20434;-70
2022/10/08 06:23:20;;;;;;;15.27;8.97;;;13.80;17.70;;;;;;5082251;28;20424;-72
2022/10/08 06:25:46;;;;;;;17.33;8.60;;;13.70;18.70;;;;;;5079065;28;20473;-71
2022/10/08 06:28:12;;;;;;;10.93;8.60;;;13.90;19.30;;;;;;5086294;28;20478;-71
2022/10/08 06:30:41;;;;;;;11.80;8.40;;;14.00;16.20;;;;;;5081833;28;20215;-70
2022/10/08 06:33:10;;;;;;;14.63;8.97;;;14.10;13.50;;;;;;5089968;28;20951;-71
2022/10/08 06:35:36;;;;;;;13.40;8.40;;;14.10;11.00;;;;;;5082604;28;20442;-72
2022/10/08 06:38:03;;;;;;;13.83;9.07;;;14.20;12.50;;;;;;5090425;28;20405;-71
2022/10/08 06:40:37;;;;;;;12.13;8.70;;;14.20;12.00;;;;;;5083044;28;20541;-72
2022/10/08 06:43:14;;;;;;;12.57;9.27;;;14.30;10.50;;;;;;5076506;28;20498;-70
2022/10/08 06:45:41;;;;;;;14.93;9.30;;;14.40;7.90;;;;;;5083689;28;20977;-72
2022/10/08 06:48:07;;;;;;;14.10;9.80;;;14.50;6.10;;;;;;5091615;28;20594;-71
2022/10/08 06:50:34;;;;;;;20.23;10.37;;;14.50;6.30;;;;;;5088201;28;20987;-71
2022/10/08 06:53:00;;;;;;;17.10;11.00;;;14.50;4.80;;;;;;5086055;28;20466;-71
2022/10/08 06:55:25;;;;;;;16.30;11.03;;;14.50;2.10;;;;;;5085658;28;20519;-73
2022/10/08 06:57:51;;;;;;;15.80;10.17;;;14.50;1.70;;;;;;5088535;28;20537;-71
2022/10/08 07:00:17;;;;;;;16.20;9.90;;;14.50;3.30;;;;;;5082982;28;20204;-71
2022/10/08 07:02:43;;;;;;;12.77;9.57;;;14.50;5.50;;;;;;5078812;28;20203;-74
2022/10/08 07:05:09;;;;;;;18.13;10.30;;;14.40;7.60;;;;;;5085912;28;20192;-75
2022/10/08 07:07:34;;;;;;;14.10;10.13;;;14.50;9.40;;;;;;5087390;28;20506;-74
2022/10/08 07:10:00;;;;;;;15.23;9.40;;;14.60;6.90;;;;;;5099542;28;20203;-74
2022/10/08 07:12:26;;;;;;;17.90;9.57;;;14.60;6.10;;;;;;5069311;28;20176;-76
2022/10/08 07:14:51;;;;;;;12.03;8.00;;;14.60;3.80;;;;;;5070419;28;20173;-75
2022/10/08 07:17:17;;;;;;;12.23;7.80;;;14.60;5.30;;;;;;5098070;28;20584;-75
2022/10/08 07:19:42;;;;;;;11.60;8.20;;;14.70;2.60;;;;;;5097720;28;20787;-73
2022/10/08 07:22:08;;;;;;;15.83;7.93;;;14.80;1.00;;;;;;5091572;28;20186;-75
2022/10/08 07:24:33;;;;;;;13.70;8.17;;;14.90;1.70;;;;;;5110636;28;20195;-74
2022/10/08 07:26:59;;;;;;;11.43;8.23;;;15.00;1.00;;;;;;5095412;28;20948;-74
2022/10/08 07:29:25;;;;;;;13.90;8.90;;;15.10;1.00;;;;;;5087765;28;20694;-71
2022/10/08 07:31:50;;;;;;;14.67;9.73;;;15.20;1.00;;;;;;5086174;28;20492;-71
2022/10/08 07:34:16;;;;;;;18.50;9.70;;;15.30;1.00;;;;;;5084030;28;20175;-72
2022/10/08 07:36:41;;;;;;;17.30;9.60;;;15.30;1.00;;;;;;5087556;28;20181;-72
2022/10/08 07:39:12;;;;;;;14.93;8.77;;;15.40;1.00;;;;;;5087677;28;20203;-72
2022/10/08 07:41:38;;;;;;;13.80;8.50;;;15.50;1.00;;;;;;5079436;28;20180;-71
2022/10/08 07:44:04;;;;;;;11.20;7.57;;;15.50;1.00;;;;;;5089230;28;20786;-75
2022/10/08 07:46:36;;;;;;;13.90;8.40;;;15.70;1.00;;;;;;5080754;28;20755;-71
2022/10/08 07:49:03;;;;;;;14.03;9.50;;;15.80;1.00;;;;;;5084337;28;20450;-71
2022/10/08 07:51:30;;;;;;;12.40;8.20;;;16.10;1.00;;;;;;5076703;28;20873;-73
2022/10/08 07:53:57;;;;;;;13.23;7.17;;;16.20;1.00;;;;;;5081404;28;20672;-71
2022/10/08 07:56:23;;;;;;;28.60;12.80;;;16.40;1.00;;;;;;5076869;28;20427;-73
2022/10/08 07:58:49;;;;;;;95.10;43.50;;;16.60;1.00;;;;;;5089288;28;20794;-75
2022/10/08 08:01:20;;;;;;;163.40;68.90;;;16.70;1.00;;;;;;5089635;28;20207;-76
2022/10/08 08:03:52;;;;;;;85.17;37.57;;;16.80;1.00;;;;;;5077579;28;20451;-78
2022/10/08 08:06:18;;;;;;;100.37;41.87;;;16.80;1.00;;;;;;5070157;28;20414;-77
2022/10/08 08:08:44;;;;;;;57.57;23.33;;;16.90;1.00;;;;;;5070483;28;20433;-75
2022/10/08 08:11:13;;;;;;;36.73;16.83;;;16.90;1.00;;;;;;5076347;28;20594;-77
2022/10/08 08:13:41;;;;;;;47.73;23.17;;;17.10;1.00;;;;;;5085765;28;20482;-77
2022/10/08 08:16:12;;;;;;;21.93;11.37;;;17.10;1.00;;;;;;5094152;28;20408;-78
2022/10/08 08:18:40;;;;;;;30.17;13.23;;;17.40;1.00;;;;;;5093928;28;20441;-77
2022/10/08 08:21:11;;;;;;;10.00;5.70;;;17.50;1.00;;;;;;5077553;28;20422;-77
2022/10/08 08:23:40;;;;;;;17.73;6.10;;;17.60;1.00;;;;;;5090059;28;20402;-77
2022/10/08 08:26:09;;;;;;;12.90;6.93;;;17.60;1.00;;;;;;5090151;28;20845;-78
2022/10/08 08:28:35;;;;;;;12.70;5.93;;;17.60;1.00;;;;;;5071561;28;20423;-77
2022/10/08 08:31:13;;;;;;;12.13;5.60;;;18.10;1.00;;;;;;5070146;28;20410;-77
2022/10/08 08:33:39;;;;;;;13.87;6.00;;;19.20;1.00;;;;;;5071513;28;20246;-77
2022/10/08 08:36:05;;;;;;;8.40;4.73;;;20.20;1.00;;;;;;5070678;28;20409;-77
2022/10/08 08:38:34;;;;;;;11.50;5.40;;;21.10;1.00;;;;;;5083513;28;20446;-77
2022/10/08 08:41:31;;;;;;;14.10;5.40;;;22.10;1.00;;;;;;5082684;28;20958;-77
2022/10/08 08:44:07;;;;;;;13.00;5.63;;;23.70;1.00;;;;;;5070253;28;20413;-77
2022/10/08 08:46:39;;;;;;;15.03;4.73;;;24.80;1.00;;;;;;5093372;28;20463;-76
2022/10/08 08:49:21;;;;;;;9.83;4.40;;;25.30;1.00;;;;;;5087100;28;20430;-77
2022/10/08 08:51:47;;;;;;;10.43;4.67;;;25.40;1.00;;;;;;5077201;28;20429;-72
2022/10/08 08:54:12;;;;;;;11.47;4.80;;;25.90;1.00;;;;;;5078596;28;20422;-74
2022/10/08 08:56:38;;;;;;;11.60;4.10;;;26.10;1.00;;;;;;5071240;28;20744;-73
2022/10/08 08:59:12;;;;;;;10.20;4.47;;;26.50;1.00;;;;;;5092357;28;20187;-74
2022/10/08 09:01:46;;;;;;;8.93;3.80;;;26.40;1.00;;;;;;5089291;28;20258;-74
2022/10/08 09:04:40;;;;;;;15.00;4.80;;;26.60;1.00;;;;;;5087525;28;20538;-74
2022/10/08 09:07:11;;;;;;;8.77;4.30;;;26.90;1.00;;;;;;5080054;28;20760;-77
2022/10/08 09:09:43;;;;;;;9.23;4.73;;;28.00;1.00;;;;;;5079838;28;20211;-74
2022/10/08 09:12:18;;;;;;;9.60;4.53;;;29.40;1.00;;;;;;5090085;28;20175;-72
2022/10/08 09:14:48;;;;;;;8.68;4.20;;;29.50;1.00;;;;;;5091388;28;20543;-73
2022/10/08 09:17:20;;;;;;;12.85;4.63;;;29.10;1.00;;;;;;5094462;28;20264;-73
2022/10/08 09:19:47;;;;;;;9.57;4.68;;;29.60;1.00;;;;;;5084208;28;20206;-74
2022/10/08 09:22:19;;;;;;;12.07;4.88;;;30.00;1.00;;;;;;5083542;28;20274;-74
2022/10/08 09:24:48;;;;;;;11.50;4.00;;;30.00;1.00;;;;;;5083264;28;20198;-73
2022/10/08 09:27:15;;;;;;;10.68;3.33;;;29.70;1.00;;;;;;5091170;28;20669;-72
2022/10/08 09:29:40;;;;;;;8.23;3.42;;;30.10;1.00;;;;;;5073790;28;20653;-74
2022/10/08 09:32:16;;;;;;;7.30;2.90;;;30.90;1.00;;;;;;5072177;28;20168;-73
2022/10/08 09:34:43;;;;;;;10.23;3.40;;;30.50;1.00;;;;;;5073608;28;20171;-72
2022/10/08 09:37:24;;;;;;;10.60;3.08;;;30.40;1.00;;;;;;5071891;28;20664;-74
2022/10/08 09:40:23;;;;;;;8.93;2.97;;;31.00;1.00;;;;;;5072422;28;20215;-75
2022/10/08 09:43:18;;;;;;;6.20;2.20;;;32.30;1.00;;;;;;5071864;28;20259;-74
2022/10/08 09:45:47;;;;;;;6.90;2.72;;;32.00;1.00;;;;;;5079123;28;20238;-76
2022/10/08 09:48:18;;;;;;;7.13;2.67;;;31.80;1.00;;;;;;5092256;28;20212;-73
2022/10/08 09:50:59;;;;;;;6.43;2.60;;;32.10;1.00;;;;;;5092341;28;20195;-72
2022/10/08 09:53:42;;;;;;;6.60;2.80;;;32.20;1.00;;;;;;5083690;28;20544;-74
2022/10/08 09:56:11;;;;;;;7.55;2.70;;;31.50;1.00;;;;;;5073697;28;20167;-75
2022/10/08 09:58:50;;;;;;;6.00;2.35;;;31.30;1.00;;;;;;5090376;28;20671;-75
2022/10/08 10:01:17;;;;;;;7.18;2.67;;;32.00;1.00;;;;;;5091963;28;20590;-74
2022/10/08 10:03:49;;;;;;;6.38;2.28;;;32.70;1.00;;;;;;5092801;28;20186;-75
2022/10/08 10:06:23;;;;;;;5.63;2.30;;;33.60;1.00;;;;;;5091116;28;20181;-74
2022/10/08 10:09:10;;;;;;;7.75;3.20;;;33.90;1.00;;;;;;5092397;28;20187;-74
2022/10/08 10:11:47;;;;;;;6.05;2.25;;;33.50;1.00;;;;;;5091684;28;20202;-75
2022/10/08 10:14:27;;;;;;;8.40;2.35;;;33.90;1.00;;;;;;5092701;28;20179;-74
2022/10/08 10:17:08;;;;;;;6.03;2.38;;;34.30;1.00;;;;;;5100774;28;20308;-73
2022/10/08 10:19:51;;;;;;;9.23;3.00;;;34.70;1.00;;;;;;5103448;28;20293;-75
2022/10/08 10:22:24;;;;;;;5.30;2.30;;;34.40;1.00;;;;;;5083985;28;20175;-75
2022/10/08 10:24:56;;;;;;;6.70;2.22;;;33.90;1.00;;;;;;5087160;28;20557;-74
2022/10/08 10:27:21;;;;;;;11.27;2.35;;;34.10;1.00;;;;;;5090677;28;20182;-73
2022/10/08 10:30:19;;;;;;;5.53;2.05;;;33.80;1.00;;;;;;5091445;28;20211;-72
2022/10/08 10:33:09;;;;;;;6.55;2.40;;;34.60;1.00;;;;;;5091591;28;20420;-73
2022/10/08 10:35:44;;;;;;;8.13;2.15;;;35.20;1.00;;;;;;5078590;28;20180;-73
2022/10/08 10:38:20;;;;;;;7.40;2.10;;;34.90;1.00;;;;;;5075832;28;20213;-72
2022/10/08 10:41:05;;;;;;;8.43;2.28;;;32.30;1.00;;;;;;5084960;28;20176;-72
2022/10/08 10:43:36;;;;;;;4.32;2.05;;;31.30;1.00;;;;;;5091895;28;20179;-72
2022/10/08 10:46:23;;;;;;;4.53;1.90;;;29.60;1.00;;;;;;5095309;28;20293;-72
2022/10/08 10:48:49;;;;;;;8.00;2.13;;;27.40;1.00;;;;;;5103321;28;20552;-71
2022/10/08 10:51:37;;;;;;;6.50;2.67;;;25.30;1.00;;;;;;5104219;28;20372;-71
2022/10/08 10:54:11;;;;;;;6.23;2.23;;;24.50;1.00;;;;;;5072515;28;20172;-71
2022/10/08 10:56:41;;;;;;;4.80;2.53;;;24.30;1.00;;;;;;5075504;28;20989;-71
2022/10/08 10:59:34;;;;;;;4.90;1.90;;;24.70;1.00;;;;;;5070974;28;20828;-71
2022/10/08 11:02:21;;;;;;;4.50;2.07;;;24.50;1.00;;;;;;5096837;28;20416;-70
2022/10/08 11:05:03;;;;;;;6.83;2.27;;;23.40;1.00;;;;;;5093537;28;20861;-71
2022/10/08 11:07:50;;;;;;;3.60;1.70;;;22.90;1.00;;;;;;5090104;28;20405;-71
2022/10/08 11:10:44;;;;;;;5.37;2.20;;;22.80;1.00;;;;;;5092886;28;20436;-71
2022/10/08 11:13:35;;;;;;;4.80;2.00;;;22.80;1.00;;;;;;5092204;28;20434;-70
2022/10/08 11:16:14;;;;;;;4.40;2.00;;;23.00;1.00;;;;;;5082533;28;20401;-71
2022/10/08 11:18:58;;;;;;;8.13;2.57;;;22.70;1.00;;;;;;5099405;28;20756;-70
2022/10/08 11:21:35;;;;;;;8.00;2.20;;;22.70;1.00;;;;;;5089977;28;20441;-71
2022/10/08 11:24:20;;;;;;;4.47;2.00;;;22.00;1.00;;;;;;5083177;28;20768;-71
2022/10/08 11:27:11;;;;;;;4.73;2.13;;;21.60;1.00;;;;;;5074829;28;20418;-72
2022/10/08 11:29:47;;;;;;;4.90;2.00;;;21.30;1.00;;;;;;5070406;28;20507;-71
2022/10/08 11:32:15;;;;;;;5.90;2.50;;;21.20;1.00;;;;;;5070058;28;20402;-71
2022/10/08 11:34:53;;;;;;;3.70;1.70;;;21.10;1.00;;;;;;5070892;28;20916;-71
2022/10/08 11:37:57;;;;;;;4.10;1.63;;;20.90;1.00;;;;;;5069755;28;20402;-70
2022/10/08 11:40:47;;;;;;;4.33;1.30;;;20.70;1.00;;;;;;5090768;28;20432;-71
2022/10/08 11:43:47;;;;;;;6.37;1.50;;;20.70;1.00;;;;;;5079667;28;20422;-71
2022/10/08 11:46:30;;;;;;;7.53;2.00;;;20.70;1.00;;;;;;5083112;28;20414;-72
2022/10/08 11:49:14;;;;;;;7.77;1.50;;;21.00;1.00;;;;;;5089808;28;20930;-70
2022/10/08 11:51:44;;;;;;;13.93;1.80;;;21.50;1.00;;;;;;5089114;28;20409;-71
2022/10/08 11:54:17;;;;;;;4.37;1.40;;;21.90;1.00;;;;;;5090790;28;20409;-71
2022/10/08 11:56:48;;;;;;;5.77;1.43;;;22.50;1.00;;;;;;5089961;28;20393;-72
2022/10/08 11:59:23;;;;;;;5.63;1.80;;;23.10;1.00;;;;;;5094468;28;20429;-71
2022/10/08 12:01:51;;;;;;;4.20;1.50;;;23.10;1.00;;;;;;5069894;28;20465;-71
2022/10/08 12:04:27;;;;;;;9.63;2.03;;;23.00;1.00;;;;;;5070393;28;20751;-71
2022/10/08 12:07:27;;;;;;;5.73;1.50;;;22.70;1.00;;;;;;5086511;28;20409;-72
2022/10/08 12:10:29;;;;;;;2.73;1.40;;;22.00;1.00;;;;;;5077398;28;20847;-71
2022/10/08 12:12:59;;;;;;;9.83;1.80;;;21.10;1.00;;;;;;5090001;28;20903;-71
2022/10/08 12:15:26;;;;;;;4.30;2.00;;;20.80;1.00;;;;;;5090348;28;20420;-72
2022/10/08 12:18:11;;;;;;;4.80;1.37;;;20.30;1.00;;;;;;5094659;28;20511;-72
2022/10/08 12:20:39;;;;;;;4.85;1.90;;;20.00;1.00;;;;;;5089184;28;20570;-71
2022/10/08 12:23:05;;;;;;;3.60;1.53;;;19.90;1.00;;;;;;5087001;28;20438;-72
2022/10/08 12:26:03;;;;;;;5.50;1.60;;;19.90;1.00;;;;;;5087889;28;20762;-73
2022/10/08 12:28:31;;;;;;;5.30;1.77;;;20.10;1.00;;;;;;5068470;28;20168;-72
2022/10/08 12:31:00;;;;;;;7.40;2.20;;;20.40;1.00;;;;;;5068708;28;20473;-73
2022/10/08 12:33:26;;;;;;;6.67;1.67;;;20.60;1.00;;;;;;5069680;28;20785;-72
2022/10/08 12:36:21;;;;;;;4.43;1.93;;;20.60;1.00;;;;;;5083834;28;20437;-70
2022/10/08 12:39:02;;;;;;;6.87;1.90;;;20.20;1.00;;;;;;5073288;28;20446;-71
2022/10/08 12:41:35;;;;;;;4.17;1.80;;;20.30;1.00;;;;;;5088008;28;20739;-73
2022/10/08 12:44:15;;;;;;;4.03;1.90;;;20.20;1.00;;;;;;5089173;28;20408;-72
2022/10/08 12:46:55;;;;;;;4.10;1.80;;;20.10;1.00;;;;;;5095856;28;20826;-71
2022/10/08 12:49:31;;;;;;;4.93;2.03;;;20.20;1.00;;;;;;5095608;28;20434;-72
2022/10/08 12:52:06;;;;;;;3.97;2.50;;;20.40;1.00;;;;;;5074699;28;20517;-70
2022/10/08 12:54:32;;;;;;;5.40;2.43;;;20.80;1.00;;;;;;5091918;28;20465;-72
2022/10/08 12:57:00;;;;;;;6.50;2.30;;;21.40;1.00;;;;;;5092555;28;20463;-71
2022/10/08 12:59:31;;;;;;;6.23;2.60;;;22.10;1.00;;;;;;5096057;28;20776;-72
2022/10/08 13:01:57;;;;;;;5.43;2.70;;;23.90;1.00;;;;;;5092067;28;20818;-73
2022/10/08 13:04:31;;;;;;;8.00;2.50;;;24.80;1.00;;;;;;5089028;28;20457;-72
2022/10/08 13:06:57;;;;;;;6.13;2.37;;;24.50;1.00;;;;;;5084194;28;20609;-73
2022/10/08 13:09:31;;;;;;;5.23;2.00;;;25.50;1.00;;;;;;5089894;28;20449;-71
2022/10/08 13:12:02;;;;;;;4.93;2.13;;;26.40;1.00;;;;;;5089333;28;20216;-72